Time;durP1;ratioP1;P1;durP2;ratioP2;P2;SDS_P1;SDS_P2;PMS_P1;PMS_P2;Temp;Humidity;BMP_temperature;BMP_pressure;BME280_temperature;BME280_humidity;BME280_pressure;Samples;Min_cycle;Max_cycle;Signal;HPM_P1;HPM_P2
2021/03/07 00:01:01;;;;;;;12.37;5.10;;;-2.40;98.70;;;-1.38;96.86;99153.00;5005997;28;20462;-76
2021/03/07 00:03:28;;;;;;;7.77;4.40;;;-2.40;98.50;;;-1.50;98.16;99148.59;5008911;28;20468;-76
2021/03/07 00:05:57;;;;;;;12.73;5.30;;;-2.50;99.00;;;-1.64;98.67;99149.34;5003302;28;20479;-76
2021/03/07 00:08:25;;;;;;;7.80;4.63;;;-2.60;99.00;;;-1.65;99.07;99150.25;5008788;28;20515;-76
2021/03/07 00:10:53;;;;;;;7.53;4.50;;;-2.70;99.10;;;-1.58;98.84;99143.88;5007838;28;20465;-77
2021/03/07 00:13:20;;;;;;;7.53;4.17;;;-2.60;99.10;;;-1.55;98.48;99143.69;5005048;28;20509;-76
2021/03/07 00:15:48;;;;;;;7.40;4.50;;;-2.50;98.90;;;-1.56;98.17;99142.88;5007729;28;20964;-76
2021/03/07 00:18:16;;;;;;;8.33;4.63;;;-2.50;98.90;;;-1.63;98.23;99151.81;5008249;28;20482;-77
2021/03/07 00:20:44;;;;;;;5.87;3.90;;;-2.60;98.80;;;-1.60;98.28;99145.69;5007413;28;20962;-76
2021/03/07 00:23:11;;;;;;;14.43;4.73;;;-2.50;99.00;;;-1.67;98.37;99146.94;5009045;28;20471;-76
2021/03/07 00:25:39;;;;;;;8.97;4.40;;;-2.60;98.80;;;-1.76;100.00;99142.31;5005861;28;20459;-78
2021/03/07 00:28:07;;;;;;;7.70;4.23;;;-2.70;99.60;;;-1.72;99.39;99144.63;5004436;28;20845;-76
2021/03/07 00:30:35;;;;;;;9.63;4.23;;;-2.70;99.00;;;-1.77;99.15;99138.91;5002988;28;20486;-76
2021/03/07 00:33:03;;;;;;;5.67;4.47;;;-2.70;99.30;;;-1.75;99.43;99147.34;5006616;28;20862;-77
2021/03/07 00:35:31;;;;;;;5.20;3.87;;;-2.70;99.30;;;-1.80;99.78;99138.25;5007190;28;20550;-76
2021/03/07 00:37:58;;;;;;;6.33;4.40;;;-2.70;99.10;;;-1.92;100.00;99136.34;5006192;28;20466;-77
2021/03/07 00:40:26;;;;;;;10.67;4.00;;;-2.90;99.30;;;-1.90;100.00;99135.34;5003656;28;20483;-76
2021/03/07 00:42:53;;;;;;;8.33;4.30;;;-2.90;99.20;;;-1.86;100.00;99125.78;5006270;28;21010;-76
2021/03/07 00:45:22;;;;;;;6.47;4.20;;;-2.80;99.50;;;-1.88;99.88;99133.56;5005211;28;20512;-76
2021/03/07 00:47:50;;;;;;;6.57;3.93;;;-2.80;99.30;;;-1.93;99.93;99127.84;5005810;28;20464;-76
2021/03/07 00:50:21;;;;;;;8.67;4.57;;;-2.90;99.30;;;-1.80;99.49;99128.81;5006957;28;20487;-76
2021/03/07 00:52:48;;;;;;;6.87;4.30;;;-2.70;99.20;;;-1.79;98.75;99124.53;5007812;28;21009;-77
2021/03/07 00:55:16;;;;;;;5.20;3.20;;;-2.70;98.80;;;-1.95;100.00;99119.41;5007729;28;20463;-76
2021/03/07 00:57:43;;;;;;;6.10;3.83;;;-2.90;99.40;;;-1.96;100.00;99122.06;5007003;28;20492;-77
2021/03/07 01:00:15;;;;;;;6.30;3.97;;;-2.90;99.70;;;-1.94;100.00;99120.25;5006408;28;20543;-76
2021/03/07 01:02:43;;;;;;;8.07;3.27;;;-2.90;99.50;;;-2.12;100.00;99114.38;5004271;28;20656;-76
2021/03/07 01:05:13;;;;;;;5.67;4.00;;;-3.10;99.20;;;-2.20;100.00;99119.06;5006029;28;20933;-76
2021/03/07 01:07:41;;;;;;;6.00;3.90;;;-3.20;99.80;;;-2.25;100.00;99111.63;5007248;28;20449;-76
2021/03/07 01:10:14;;;;;;;8.63;4.27;;;-3.20;99.80;;;-2.26;100.00;99109.16;5001294;28;20583;-76
2021/03/07 01:12:42;;;;;;;7.07;3.50;;;-3.20;99.90;;;-2.22;100.00;99100.41;5000119;28;20472;-77
2021/03/07 01:15:11;;;;;;;5.63;3.87;;;-3.10;99.70;;;-2.13;100.00;99099.91;5005634;28;21033;-76
2021/03/07 01:17:38;;;;;;;6.00;3.47;;;-3.10;99.90;;;-2.19;100.00;99095.13;5008390;28;20453;-77
2021/03/07 01:20:15;;;;;;;4.60;3.50;;;-3.10;99.40;;;-2.22;100.00;99095.28;5003592;28;20477;-76
2021/03/07 01:22:53;;;;;;;5.23;3.47;;;-3.20;99.90;;;-2.26;100.00;99089.50;5005259;28;21059;-76
2021/03/07 01:25:22;;;;;;;7.27;4.30;;;-3.20;99.90;;;-2.28;100.00;99087.91;5004985;28;20466;-76
2021/03/07 01:27:51;;;;;;;6.97;4.20;;;-3.30;99.70;;;-2.33;100.00;99092.47;5004929;28;20470;-77
2021/03/07 01:30:23;;;;;;;10.60;4.07;;;-3.30;99.90;;;-2.34;100.00;99078.00;5004524;28;20842;-76
2021/03/07 01:32:51;;;;;;;6.40;4.33;;;-3.30;99.80;;;-2.32;100.00;99065.91;5006568;28;20497;-76
2021/03/07 01:35:21;;;;;;;11.33;3.50;;;-3.10;99.90;;;-2.22;100.00;99069.69;5004297;28;20558;-76
2021/03/07 01:37:49;;;;;;;4.47;3.47;;;-3.20;99.80;;;-2.33;100.00;99064.28;5005409;28;20793;-77
2021/03/07 01:40:20;;;;;;;4.50;3.43;;;-3.30;99.60;;;-2.36;100.00;99061.91;5002577;28;20494;-76
2021/03/07 01:42:49;;;;;;;7.40;3.07;;;-3.30;99.60;;;-2.33;100.00;99056.59;5005787;28;20885;-76
2021/03/07 01:45:20;;;;;;;9.93;3.93;;;-3.20;99.80;;;-2.23;100.00;99039.84;5004544;28;20955;-77
2021/03/07 01:47:50;;;;;;;4.40;3.00;;;-3.00;99.50;;;-2.30;100.00;99039.34;5005623;28;20842;-77
2021/03/07 01:50:23;;;;;;;13.83;4.40;;;-3.20;99.80;;;-2.23;100.00;99032.16;5004557;28;20498;-76
2021/03/07 01:52:51;;;;;;;5.37;3.50;;;-3.10;99.70;;;-2.17;100.00;99031.81;5006646;28;21015;-76
2021/03/07 01:55:23;;;;;;;5.77;3.80;;;-3.00;99.20;;;-2.19;99.89;99031.91;5006142;28;20524;-76
2021/03/07 01:57:59;;;;;;;11.73;3.30;;;-3.00;99.30;;;-2.25;99.25;99029.66;5004999;28;20932;-76
2021/03/07 02:00:26;;;;;;;5.90;3.20;;;-3.10;99.10;;;-2.29;100.00;99027.38;5005006;28;20528;-76
2021/03/07 02:02:54;;;;;;;6.50;4.00;;;-3.20;99.40;;;-2.22;100.00;99026.13;5005523;28;20452;-76
2021/03/07 02:05:25;;;;;;;7.77;3.77;;;-3.10;99.30;;;-2.41;100.00;99022.91;5005462;28;20467;-76
2021/03/07 02:07:53;;;;;;;4.90;3.40;;;-3.40;99.40;;;-2.51;100.00;99024.31;5006337;28;20453;-76
2021/03/07 02:10:27;;;;;;;8.33;3.37;;;-3.40;99.90;;;-2.55;100.00;99019.34;5004924;28;20497;-76
2021/03/07 02:13:00;;;;;;;5.70;4.07;;;-3.50;99.90;;;-2.49;100.00;99025.03;5006416;28;20533;-76
2021/03/07 02:15:32;;;;;;;7.53;3.10;;;-3.40;99.90;;;-2.55;100.00;99015.94;5006338;28;20552;-76
2021/03/07 02:18:01;;;;;;;6.00;3.23;;;-3.50;99.90;;;-2.57;100.00;99017.78;5005829;28;20544;-76
2021/03/07 02:20:33;;;;;;;6.20;3.30;;;-3.40;99.90;;;-2.67;100.00;99012.31;5007710;28;20926;-76
2021/03/07 02:23:07;;;;;;;4.10;3.07;;;-3.60;99.90;;;-2.63;100.00;99016.34;5006718;28;20450;-76
2021/03/07 02:25:37;;;;;;;3.60;2.80;;;-3.60;99.90;;;-2.59;100.00;99015.28;5007563;28;20458;-76
2021/03/07 02:28:08;;;;;;;7.73;3.83;;;-3.40;99.80;;;-2.53;100.00;99009.84;5004546;28;20584;-76
2021/03/07 02:30:37;;;;;;;4.47;3.10;;;-3.40;99.90;;;-2.57;100.00;98998.09;5003730;28;20526;-76
2021/03/07 02:33:17;;;;;;;4.97;3.50;;;-3.50;99.80;;;-2.52;100.00;99000.44;5006118;28;20720;-76
2021/03/07 02:35:55;;;;;;;6.10;3.97;;;-3.40;99.70;;;-2.62;100.00;98994.97;5005543;28;20492;-76
2021/03/07 02:38:25;;;;;;;7.20;3.77;;;-3.60;99.80;;;-2.61;100.00;98990.69;5005334;28;20477;-76
2021/03/07 02:40:59;;;;;;;5.90;3.17;;;-3.50;99.90;;;-2.72;100.00;98993.81;5008666;28;23305;-76
2021/03/07 02:43:32;;;;;;;6.60;3.00;;;-3.70;99.90;;;-2.69;100.00;98988.53;5009586;28;20440;-76
2021/03/07 02:46:02;;;;;;;3.40;2.93;;;-3.60;99.90;;;-2.73;100.00;98984.47;5008044;28;20505;-76
2021/03/07 02:48:31;;;;;;;5.70;3.50;;;-3.70;99.90;;;-2.76;100.00;98986.38;5007273;28;20462;-76
2021/03/07 02:51:02;;;;;;;9.60;3.40;;;-3.70;99.90;;;-2.75;100.00;98988.03;5007511;28;21336;-76
2021/03/07 02:53:35;;;;;;;4.37;3.20;;;-3.70;99.90;;;-2.83;100.00;98992.72;5009082;28;20506;-76
2021/03/07 02:56:08;;;;;;;5.87;3.73;;;-3.80;99.90;;;-2.81;100.00;98989.16;5006056;28;21099;-76
2021/03/07 02:58:39;;;;;;;3.43;2.83;;;-3.70;99.90;;;-2.84;100.00;98989.34;5009343;28;20481;-76
2021/03/07 03:01:12;;;;;;;5.67;3.30;;;-3.70;99.90;;;-2.90;100.00;98991.38;5006756;28;20437;-76
2021/03/07 03:03:43;;;;;;;4.20;2.80;;;-3.80;99.90;;;-2.82;100.00;98987.53;5010720;28;20469;-76
2021/03/07 03:06:15;;;;;;;16.90;3.17;;;-3.70;99.90;;;-2.83;100.00;98991.00;5008734;28;20503;-76
2021/03/07 03:08:47;;;;;;;5.73;3.47;;;-3.70;99.90;;;-2.90;100.00;98986.28;5010043;28;20441;-76
2021/03/07 03:11:17;;;;;;;4.50;2.90;;;-3.80;99.90;;;-2.94;100.00;98989.88;5009245;28;20458;-76
2021/03/07 03:13:49;;;;;;;3.77;2.93;;;-3.90;99.90;;;-2.95;100.00;98980.59;5007188;28;20847;-76
2021/03/07 03:16:21;;;;;;;2.70;2.20;;;-3.90;99.90;;;-2.90;100.00;98974.31;5007230;28;20467;-76
2021/03/07 03:18:51;;;;;;;4.17;2.70;;;-3.80;99.90;;;-2.97;100.00;98980.66;5008842;28;20926;-76
2021/03/07 03:21:19;;;;;;;6.73;3.50;;;-3.90;99.90;;;-2.88;100.00;98982.72;5009255;28;20623;-76
2021/03/07 03:23:48;;;;;;;4.40;3.43;;;-3.80;99.90;;;-2.95;100.00;98980.59;5008540;28;20448;-76
2021/03/07 03:26:19;;;;;;;5.20;3.13;;;-3.90;99.90;;;-2.95;100.00;98983.16;5009925;28;20433;-76
2021/03/07 03:28:49;;;;;;;5.50;2.97;;;-3.90;99.90;;;-2.97;100.00;98975.53;5008035;28;20442;-76
2021/03/07 03:31:17;;;;;;;4.37;3.33;;;-3.90;99.90;;;-3.04;100.00;98989.53;5007557;28;20478;-76
2021/03/07 03:33:44;;;;;;;3.47;2.57;;;-4.00;99.90;;;-2.99;100.00;98977.38;5004939;28;20991;-76
2021/03/07 03:36:13;;;;;;;4.63;2.97;;;-3.90;99.90;;;-2.90;100.00;98974.31;5001808;28;20471;-76
2021/03/07 03:38:47;;;;;;;4.97;3.37;;;-3.80;99.90;;;-2.89;100.00;98973.41;5006830;28;20441;-76
2021/03/07 03:41:18;;;;;;;7.50;3.33;;;-3.70;99.90;;;-2.93;100.00;98974.47;5009148;28;20581;-76
2021/03/07 03:43:59;;;;;;;4.53;3.10;;;-3.90;99.70;;;-3.02;100.00;98985.19;5005959;28;20487;-77
2021/03/07 03:46:29;;;;;;;6.37;3.63;;;-4.00;99.90;;;-3.16;100.00;98980.75;5007263;28;20984;-76
2021/03/07 03:49:07;;;;;;;4.07;2.87;;;-4.10;99.90;;;-3.14;100.00;98980.69;5005219;28;20574;-77
2021/03/07 03:51:39;;;;;;;7.00;3.80;;;-4.10;99.90;;;-3.21;100.00;98980.19;5006626;28;20875;-76
2021/03/07 03:54:09;;;;;;;4.87;3.00;;;-4.20;99.90;;;-3.25;100.00;98982.97;5009287;28;20505;-76
2021/03/07 03:56:37;;;;;;;5.50;3.50;;;-4.30;99.90;;;-3.28;100.00;98978.03;5009281;28;20457;-76
2021/03/07 03:59:08;;;;;;;3.60;2.90;;;-4.20;99.90;;;-3.37;100.00;98978.50;5007623;28;20442;-76
2021/03/07 04:01:37;;;;;;;6.70;3.17;;;-4.30;99.90;;;-3.26;100.00;98971.91;5008072;28;20959;-76
2021/03/07 04:04:07;;;;;;;5.20;2.53;;;-4.20;99.90;;;-3.34;100.00;98974.06;5006655;28;21052;-76
2021/03/07 04:06:35;;;;;;;4.80;3.27;;;-4.30;99.90;;;-3.33;100.00;98972.34;5004398;28;20477;-76
2021/03/07 04:09:04;;;;;;;5.67;2.80;;;-4.20;99.90;;;-3.40;100.00;98969.22;5008321;28;21147;-76
2021/03/07 04:11:34;;;;;;;7.47;3.03;;;-4.30;99.90;;;-3.40;100.00;98973.53;5007710;28;20467;-76
2021/03/07 04:14:17;;;;;;;4.83;3.00;;;-4.40;99.90;;;-3.43;100.00;98978.78;5007638;28;20488;-76
2021/03/07 04:16:48;;;;;;;4.47;3.40;;;-4.40;99.90;;;-3.47;100.00;98990.09;5005156;28;20911;-76
2021/03/07 04:19:18;;;;;;;4.83;3.03;;;-4.40;99.90;;;-3.50;100.00;98983.38;5008228;28;20495;-76
2021/03/07 04:21:48;;;;;;;6.53;3.00;;;-4.40;99.90;;;-3.57;100.00;98980.31;5006603;28;20488;-76
2021/03/07 04:24:16;;;;;;;3.63;3.13;;;-4.50;99.90;;;-3.59;100.00;98989.78;5006957;28;20473;-76
2021/03/07 04:26:44;;;;;;;5.30;3.57;;;-4.50;99.90;;;-3.53;100.00;98990.38;5007135;28;20489;-76
2021/03/07 04:29:13;;;;;;;5.10;3.13;;;-4.50;99.90;;;-3.56;100.00;98986.25;5008163;28;20521;-76
2021/03/07 04:31:42;;;;;;;4.27;2.90;;;-4.40;99.90;;;-3.61;100.00;99001.00;5004832;28;20907;-76
2021/03/07 04:34:10;;;;;;;8.47;2.77;;;-4.50;99.90;;;-3.56;100.00;98981.13;5008254;28;20563;-76
2021/03/07 04:36:38;;;;;;;2.87;2.50;;;-4.40;99.90;;;-3.57;100.00;98992.25;5008677;28;20965;-76
2021/03/07 04:39:06;;;;;;;5.53;2.83;;;-4.40;99.90;;;-3.66;100.00;98990.16;5005201;28;20466;-76
2021/03/07 04:41:34;;;;;;;3.63;3.10;;;-4.60;99.90;;;-3.53;100.00;98998.03;5005557;28;20442;-76
2021/03/07 04:44:01;;;;;;;4.43;2.93;;;-4.40;99.90;;;-3.61;100.00;98999.25;5008507;28;20806;-76
2021/03/07 04:46:29;;;;;;;3.73;2.70;;;-4.50;99.90;;;-3.69;100.00;98993.69;5003812;28;20441;-76
2021/03/07 04:48:58;;;;;;;6.30;3.23;;;-4.60;99.90;;;-3.73;100.00;98991.38;5006977;28;20535;-76
2021/03/07 04:51:25;;;;;;;4.17;2.90;;;-4.60;99.90;;;-3.58;100.00;98982.97;5007105;28;20903;-76
2021/03/07 04:53:53;;;;;;;4.23;2.50;;;-4.30;99.90;;;-3.59;100.00;98994.91;5007579;28;20500;-77
2021/03/07 04:56:20;;;;;;;4.13;2.60;;;-4.40;99.90;;;-3.68;100.00;98985.13;5006587;28;21043;-76
2021/03/07 04:58:48;;;;;;;4.70;2.87;;;-4.60;99.90;;;-3.71;100.00;98980.16;5007048;28;20471;-76
2021/03/07 05:01:16;;;;;;;3.63;2.70;;;-4.60;99.90;;;-3.70;100.00;98976.72;5007404;28;20466;-76
2021/03/07 05:03:43;;;;;;;9.20;3.50;;;-4.60;99.90;;;-3.77;100.00;98980.47;5005917;28;20436;-76
2021/03/07 05:06:12;;;;;;;3.40;2.90;;;-4.60;99.90;;;-3.64;100.00;98976.41;5002622;28;20448;-76
2021/03/07 05:08:40;;;;;;;5.73;2.53;;;-4.50;99.90;;;-3.67;100.00;98979.09;5005744;28;20466;-76
2021/03/07 05:11:07;;;;;;;5.27;3.07;;;-4.60;99.90;;;-3.74;100.00;98977.75;5007290;28;20497;-76
2021/03/07 05:13:35;;;;;;;3.87;2.70;;;-4.60;99.90;;;-3.78;100.00;98971.13;5005617;28;20494;-76
2021/03/07 05:16:03;;;;;;;4.00;2.80;;;-4.60;99.90;;;-3.86;100.00;98980.09;5006248;28;20525;-76
2021/03/07 05:18:31;;;;;;;3.07;2.70;;;-4.70;99.90;;;-3.77;100.00;98977.91;5005490;28;20523;-76
2021/03/07 05:20:58;;;;;;;4.60;2.90;;;-4.70;99.90;;;-3.73;100.00;98976.88;5005542;28;20445;-76
2021/03/07 05:23:26;;;;;;;2.70;2.40;;;-4.60;99.90;;;-3.84;100.00;98981.66;5004758;28;20440;-76
2021/03/07 05:25:54;;;;;;;5.10;2.93;;;-4.80;99.90;;;-3.87;100.00;98979.25;5007209;28;20446;-76
2021/03/07 05:28:22;;;;;;;3.73;2.77;;;-4.80;99.90;;;-3.95;100.00;98981.34;5004083;28;20963;-76
2021/03/07 05:30:50;;;;;;;7.60;3.20;;;-4.90;99.90;;;-4.04;100.00;98979.25;5005802;28;20957;-76
2021/03/07 05:33:18;;;;;;;4.63;2.70;;;-5.00;99.90;;;-3.93;100.00;98977.00;5003820;28;20475;-77
2021/03/07 05:35:45;;;;;;;7.43;3.03;;;-4.90;99.90;;;-3.93;100.00;98974.47;5005334;28;20534;-76
2021/03/07 05:38:13;;;;;;;8.30;3.03;;;-4.80;99.90;;;-4.08;100.00;98973.47;5007639;28;20499;-76
2021/03/07 05:40:42;;;;;;;4.83;3.00;;;-5.00;99.90;;;-4.02;100.00;98968.94;5002984;28;20469;-76
2021/03/07 05:43:10;;;;;;;4.60;2.53;;;-4.90;99.90;;;-3.98;100.00;98962.78;5005494;28;20471;-77
2021/03/07 05:45:38;;;;;;;5.30;2.83;;;-4.80;99.90;;;-3.93;100.00;98966.78;5005980;28;20475;-76
2021/03/07 05:48:06;;;;;;;4.10;2.97;;;-4.80;99.90;;;-4.17;100.00;98966.25;5005366;28;20934;-76
2021/03/07 05:50:34;;;;;;;4.17;2.93;;;-5.00;99.90;;;-4.16;100.00;98955.13;5007169;28;20715;-76
2021/03/07 05:53:02;;;;;;;3.60;3.00;;;-5.00;99.90;;;-4.03;100.00;98962.22;5007273;28;20469;-76
2021/03/07 05:55:30;;;;;;;3.70;2.50;;;-4.90;99.90;;;-4.01;100.00;98961.22;5005136;28;20452;-76
2021/03/07 05:58:01;;;;;;;4.07;2.57;;;-4.80;99.90;;;-4.04;100.00;98958.00;5004005;28;20425;-76
2021/03/07 06:00:29;;;;;;;5.53;3.00;;;-4.90;99.90;;;-4.30;100.00;98960.06;5007443;28;20441;-76
2021/03/07 06:02:56;;;;;;;4.43;3.10;;;-5.10;99.90;;;-4.36;100.00;98962.06;5004865;28;20476;-77
2021/03/07 06:05:24;;;;;;;4.87;3.00;;;-5.30;99.90;;;-4.28;100.00;98957.44;5004996;28;20453;-76
2021/03/07 06:07:52;;;;;;;3.30;2.73;;;-5.10;99.90;;;-4.27;100.00;98965.00;5004429;28;20473;-76
2021/03/07 06:10:23;;;;;;;6.23;2.77;;;-5.10;99.90;;;-4.18;100.00;98958.66;5004806;28;20960;-76
2021/03/07 06:13:02;;;;;;;5.13;3.00;;;-5.00;99.90;;;-4.35;100.00;98958.63;5006697;28;20480;-76
2021/03/07 06:15:50;;;;;;;3.70;2.40;;;-5.20;99.90;;;-4.38;100.00;98951.94;5004948;28;20449;-76
2021/03/07 06:18:21;;;;;;;5.20;2.73;;;-5.30;99.90;;;-4.24;100.00;98948.75;5006005;28;20445;-77
2021/03/07 06:20:53;;;;;;;2.80;2.50;;;-5.10;99.90;;;-4.22;100.00;98947.75;5004951;28;20462;-76
2021/03/07 06:23:35;;;;;;;6.73;2.80;;;-5.10;99.90;;;-4.20;100.00;98950.25;5004242;28;20499;-76
2021/03/07 06:26:10;;;;;;;10.10;3.40;;;-5.10;99.90;;;-4.18;100.00;98945.88;5005551;28;20469;-76
2021/03/07 06:28:39;;;;;;;3.47;2.87;;;-5.10;99.90;;;-4.13;100.00;98951.63;5005164;28;20466;-76
2021/03/07 06:31:30;;;;;;;5.27;2.80;;;-5.00;99.90;;;-4.19;100.00;98942.50;5006933;28;20794;-76
2021/03/07 06:34:00;;;;;;;3.63;2.97;;;-5.10;99.90;;;-4.11;100.00;98949.81;5004275;28;20502;-76
2021/03/07 06:36:29;;;;;;;3.97;3.07;;;-5.00;99.90;;;-4.01;100.00;98943.34;5006094;28;20804;-76
2021/03/07 06:39:02;;;;;;;9.13;3.13;;;-4.90;99.90;;;-4.08;100.00;98939.44;5005969;28;20470;-76
2021/03/07 06:41:31;;;;;;;3.10;2.40;;;-4.90;99.90;;;-4.08;100.00;98939.44;5002262;28;20441;-76
2021/03/07 06:44:12;;;;;;;4.07;2.80;;;-4.90;99.90;;;-4.15;100.00;98944.03;5004701;28;20955;-77
2021/03/07 06:46:42;;;;;;;4.30;2.70;;;-5.00;99.90;;;-4.03;100.00;98942.63;5006235;28;20445;-76
2021/03/07 06:49:23;;;;;;;4.27;2.77;;;-4.90;99.90;;;-4.03;100.00;98939.22;5005386;28;21392;-76
2021/03/07 06:51:51;;;;;;;3.23;2.93;;;-4.90;99.90;;;-4.05;100.00;98949.50;5007052;28;20453;-76
2021/03/07 06:54:21;;;;;;;3.87;2.63;;;-4.80;99.90;;;-4.04;100.00;98935.84;4996553;28;20903;-77
2021/03/07 06:56:51;;;;;;;5.33;3.73;;;-4.90;99.90;;;-4.06;100.00;98933.34;5004062;28;22872;-77
2021/03/07 06:59:22;;;;;;;8.33;3.30;;;-4.90;99.90;;;-4.01;100.00;98940.78;5005544;28;20511;-76
2021/03/07 07:01:51;;;;;;;6.10;2.73;;;-4.90;99.90;;;-3.86;100.00;98929.84;5006943;28;20923;-76
2021/03/07 07:04:21;;;;;;;6.30;2.87;;;-4.70;99.90;;;-3.83;100.00;98927.13;5006003;28;20500;-76
2021/03/07 07:07:03;;;;;;;3.90;3.37;;;-4.60;99.90;;;-3.79;100.00;98928.63;5005159;28;20475;-78
2021/03/07 07:09:32;;;;;;;10.43;2.97;;;-4.60;99.90;;;-3.86;100.00;98924.72;5004440;28;20469;-77
2021/03/07 07:12:01;;;;;;;6.10;2.90;;;-4.70;99.90;;;-3.74;100.00;98919.00;5003947;28;20806;-76
2021/03/07 07:14:38;;;;;;;4.63;3.07;;;-4.50;99.90;;;-3.75;100.00;98922.44;5004843;28;20502;-76
2021/03/07 07:17:07;;;;;;;5.37;3.20;;;-4.60;99.90;;;-3.75;100.00;98917.34;5005805;28;20466;-77
2021/03/07 07:19:36;;;;;;;7.80;3.70;;;-4.60;99.90;;;-3.83;100.00;98923.75;5005051;28;21066;-76
2021/03/07 07:22:05;;;;;;;2.83;2.40;;;-4.70;99.90;;;-3.75;100.00;98925.00;5004045;28;20441;-77
2021/03/07 07:24:32;;;;;;;4.40;3.47;;;-4.60;99.90;;;-3.63;100.00;98921.03;5003559;28;20473;-76
2021/03/07 07:27:01;;;;;;;3.10;2.70;;;-4.50;99.90;;;-3.60;100.00;98919.13;5008748;28;20452;-77
2021/03/07 07:29:28;;;;;;;2.83;2.57;;;-4.40;99.90;;;-3.62;100.00;98920.94;5006775;28;20485;-76
2021/03/07 07:32:05;;;;;;;4.17;3.00;;;-4.40;99.90;;;-3.61;100.00;98914.91;5008723;28;20489;-76
2021/03/07 07:34:38;;;;;;;3.73;3.03;;;-4.50;99.90;;;-3.66;100.00;98909.22;5008167;28;20506;-76
2021/03/07 07:37:12;;;;;;;4.27;3.13;;;-4.50;99.90;;;-3.73;100.00;98910.44;5008462;28;20474;-77
2021/03/07 07:39:42;;;;;;;2.93;2.60;;;-4.60;99.90;;;-3.51;100.00;98905.06;5010554;28;20448;-77
2021/03/07 07:42:23;;;;;;;6.03;3.07;;;-4.30;99.90;;;-3.45;100.00;98903.94;5006860;28;20982;-76
2021/03/07 07:44:52;;;;;;;4.13;2.97;;;-4.30;99.90;;;-3.36;100.00;98899.16;5007412;28;20469;-76
2021/03/07 07:47:21;;;;;;;5.57;3.00;;;-4.20;99.90;;;-3.32;100.00;98902.38;5006266;28;20430;-77
2021/03/07 07:49:51;;;;;;;3.57;2.90;;;-4.10;99.90;;;-3.31;100.00;98896.38;5004316;28;20486;-76
2021/03/07 07:52:38;;;;;;;4.57;3.10;;;-4.10;99.90;;;-3.38;100.00;98900.97;5006522;28;20803;-76
2021/03/07 07:55:14;;;;;;;7.77;4.00;;;-4.20;99.90;;;-3.38;100.00;98900.16;5002376;28;20486;-78
2021/03/07 07:57:51;;;;;;;5.30;3.63;;;-4.20;99.90;;;-3.35;100.00;98907.66;5007856;28;20533;-76
2021/03/07 08:00:24;;;;;;;7.47;3.27;;;-4.20;99.90;;;-3.24;100.00;98898.53;5005417;28;21253;-77
2021/03/07 08:02:58;;;;;;;3.90;3.20;;;-4.10;99.90;;;-3.08;100.00;98898.53;5007300;28;20545;-77
2021/03/07 08:05:44;;;;;;;5.20;3.43;;;-3.90;99.90;;;-2.95;100.00;98903.84;5007589;28;20967;-77
2021/03/07 08:08:14;;;;;;;6.93;4.17;;;-3.70;99.90;;;-2.86;100.00;98898.22;5008011;28;20444;-77
2021/03/07 08:10:48;;;;;;;5.77;3.80;;;-3.60;99.90;;;-2.79;100.00;98899.56;5005439;28;20483;-77
2021/03/07 08:13:51;;;;;;;6.97;3.80;;;-3.60;99.90;;;-2.74;100.00;98893.25;5006782;28;20502;-76
2021/03/07 08:16:40;;;;;;;8.00;4.17;;;-3.50;99.90;;;-2.64;100.00;98888.50;5004116;28;20478;-76
2021/03/07 08:19:11;;;;;;;8.67;3.93;;;-3.30;99.90;;;-2.53;100.00;98885.34;5005560;28;20565;-76
2021/03/07 08:22:01;;;;;;;15.03;7.30;;;-3.20;99.90;;;-2.51;100.00;98886.91;5004851;28;20463;-76
2021/03/07 08:24:56;;;;;;;7.63;3.97;;;-3.10;99.90;;;-2.44;100.00;98875.41;5006967;28;20458;-76
2021/03/07 08:27:37;;;;;;;6.87;4.00;;;-3.10;99.90;;;-2.43;100.00;98871.13;5005076;28;20593;-76
2021/03/07 08:30:08;;;;;;;5.00;3.90;;;-3.20;99.90;;;-2.35;100.00;98877.44;5003708;28;20811;-76
2021/03/07 08:32:45;;;;;;;8.80;4.40;;;-3.10;99.90;;;-2.27;100.00;98877.84;5007124;28;20482;-77
2021/03/07 08:35:19;;;;;;;8.40;4.00;;;-3.00;99.90;;;-2.19;100.00;98869.72;5007178;28;20467;-77
2021/03/07 08:38:14;;;;;;;6.90;4.40;;;-3.00;99.90;;;-2.10;100.00;98875.16;5004426;28;20462;-77
2021/03/07 08:40:43;;;;;;;6.63;3.80;;;-2.90;99.90;;;-2.10;100.00;98870.03;5007125;28;20509;-77
2021/03/07 08:43:55;;;;;;;5.93;3.83;;;-2.90;99.90;;;-1.98;100.00;98868.50;5006241;28;20474;-77
2021/03/07 08:46:26;;;;;;;7.27;4.23;;;-2.70;99.90;;;-1.89;100.00;98856.88;5006729;28;21668;-77
2021/03/07 08:48:56;;;;;;;5.20;3.97;;;-2.60;99.90;;;-1.83;100.00;98857.34;5006270;28;20470;-77
2021/03/07 08:51:36;;;;;;;9.67;4.70;;;-2.50;99.90;;;-1.74;100.00;98859.38;5004050;28;20483;-77
2021/03/07 08:54:06;;;;;;;7.70;4.20;;;-2.40;99.90;;;-1.66;100.00;98849.47;5005821;28;20498;-77
2021/03/07 08:56:37;;;;;;;6.37;4.67;;;-2.40;99.90;;;-1.59;100.00;98845.63;5008558;28;20490;-77
2021/03/07 08:59:05;;;;;;;5.17;3.87;;;-2.30;99.90;;;-1.52;100.00;98839.22;5005543;28;20473;-77
2021/03/07 09:01:34;;;;;;;8.90;4.63;;;-2.10;99.90;;;-1.43;100.00;98844.72;5005426;28;20460;-77
2021/03/07 09:04:05;;;;;;;6.50;4.10;;;-2.10;99.90;;;-1.34;100.00;98841.59;5005738;28;20465;-77
2021/03/07 09:06:36;;;;;;;6.53;3.60;;;-2.00;99.90;;;-1.27;100.00;98835.19;5007078;28;20488;-77
2021/03/07 09:09:11;;;;;;;5.90;3.73;;;-1.90;99.90;;;-1.20;100.00;98826.19;5003684;28;20469;-77
2021/03/07 09:11:50;;;;;;;7.90;3.50;;;-1.80;99.90;;;-1.10;100.00;98829.84;5002764;28;20864;-77
2021/03/07 09:14:28;;;;;;;4.77;3.47;;;-1.70;99.90;;;-1.02;100.00;98830.19;5007790;28;20502;-77
2021/03/07 09:16:55;;;;;;;3.70;2.80;;;-1.60;99.90;;;-0.90;100.00;98824.28;5004537;28;20470;-77
2021/03/07 09:19:28;;;;;;;5.90;3.47;;;-1.50;99.90;;;-0.83;100.00;98825.53;5004082;28;20471;-77
2021/03/07 09:22:20;;;;;;;2.93;2.20;;;-1.40;99.90;;;-0.75;100.00;98820.75;5004471;28;20968;-77
2021/03/07 09:24:54;;;;;;;8.70;3.37;;;-1.30;99.90;;;-0.63;100.00;98812.28;5003068;28;20472;-78
2021/03/07 09:27:25;;;;;;;32.03;12.60;;;-1.20;99.90;;;-0.55;100.00;98815.16;5001393;28;20474;-77
2021/03/07 09:30:13;;;;;;;7.90;4.10;;;-1.00;99.90;;;-0.43;100.00;98802.47;5005496;28;20459;-76
2021/03/07 09:32:44;;;;;;;4.53;3.20;;;-1.00;99.90;;;-0.33;100.00;98806.06;5006046;28;20522;-76
2021/03/07 09:35:26;;;;;;;4.60;3.47;;;-0.80;99.90;;;-0.25;100.00;98796.94;5003802;28;20503;-77
2021/03/07 09:38:01;;;;;;;4.30;3.57;;;-0.80;99.90;;;-0.16;100.00;98792.94;5002023;28;20475;-77
2021/03/07 09:40:34;;;;;;;4.30;3.13;;;-0.70;99.90;;;-0.09;100.00;98792.44;5002599;28;20475;-77
2021/03/07 09:43:04;;;;;;;3.63;3.07;;;-0.60;99.90;;;-0.01;100.00;98789.34;5005081;28;20463;-77
2021/03/07 09:45:33;;;;;;;4.60;3.00;;;-0.50;99.90;;;0.08;100.00;98777.63;5003029;28;20459;-77
2021/03/07 09:48:27;;;;;;;3.83;2.80;;;-0.40;99.90;;;0.16;99.90;98776.19;5004373;28;20467;-77
2021/03/07 09:50:55;;;;;;;4.83;2.87;;;-0.30;99.90;;;0.25;99.62;98770.41;5005663;28;20514;-77
2021/03/07 09:53:25;;;;;;;3.27;2.40;;;-0.20;99.90;;;0.38;95.62;98765.28;5002532;28;20934;-77
2021/03/07 09:55:53;;;;;;;4.30;2.63;;;-0.10;98.20;;;0.54;90.20;98772.72;5006544;28;20502;-77
2021/03/07 09:58:21;;;;;;;2.97;2.27;;;0.10;97.00;;;0.64;88.80;98766.00;5005508;28;20471;-77
2021/03/07 10:00:51;;;;;;;4.33;3.23;;;0.20;97.20;;;0.71;88.54;98757.75;5004789;28;20466;-77
2021/03/07 10:03:25;;;;;;;4.50;3.20;;;0.20;97.00;;;0.81;88.13;98768.22;5006665;28;20600;-77
2021/03/07 10:06:20;;;;;;;4.10;2.20;;;0.30;97.20;;;0.90;87.43;98767.59;5006572;28;20493;-77
2021/03/07 10:09:07;;;;;;;4.77;3.47;;;0.40;96.90;;;1.04;82.97;98762.28;4967842;28;20873;-77
2021/03/07 10:11:35;;;;;;;6.33;2.90;;;0.60;95.30;;;1.18;79.91;98758.72;5004676;28;20466;-78
2021/03/07 10:14:06;;;;;;;7.80;3.20;;;0.80;94.40;;;1.32;75.82;98755.97;5005197;28;20498;-77
2021/03/07 10:16:35;;;;;;;2.93;2.53;;;0.90;93.70;;;1.43;76.15;98750.81;5006090;28;20501;-78
2021/03/07 10:19:14;;;;;;;2.30;2.10;;;1.00;93.70;;;1.51;76.13;98749.34;5005770;28;20451;-77
2021/03/07 10:21:45;;;;;;;3.70;2.83;;;1.00;93.70;;;1.57;75.44;98754.97;5002390;28;20462;-77
2021/03/07 10:24:17;;;;;;;3.10;2.80;;;1.10;93.80;;;1.63;75.04;98752.78;5001897;28;20466;-77
2021/03/07 10:26:49;;;;;;;3.17;2.30;;;1.20;93.80;;;1.69;73.74;98751.50;5005738;28;20471;-78
2021/03/07 10:29:25;;;;;;;3.10;2.27;;;1.30;93.10;;;1.78;73.44;98748.22;5004838;28;20462;-77
2021/03/07 10:32:13;;;;;;;2.57;2.37;;;1.40;93.00;;;1.86;72.55;98746.72;5004869;28;20459;-77
2021/03/07 10:34:43;;;;;;;4.50;2.60;;;1.40;93.10;;;1.92;72.19;98746.25;5004839;28;20549;-78